sensor_id;sensor_type;location;lat;lon;timestamp;pressure;altitude;pressure_sealevel;temperature;humidity
52291;BME280;39663;45.432;28.050;2024-02-21T00:00:30;102072.17;;;9.97;39.81
52291;BME280;39663;45.432;28.050;2024-02-21T00:01:01;102072.90;;;10.16;39.50
52291;BME280;39663;45.432;28.050;2024-02-21T00:01:32;102071.20;;;10.22;39.10
52291;BME280;39663;45.432;28.050;2024-02-21T00:02:04;102070.22;;;10.13;38.57
52291;BME280;39663;45.432;28.050;2024-02-21T00:02:36;102069.49;;;10.05;39.29
52291;BME280;39663;45.432;28.050;2024-02-21T00:03:08;102070.10;;;10.07;40.24
52291;BME280;39663;45.432;28.050;2024-02-21T00:03:39;102069.22;;;10.20;38.83
52291;BME280;39663;45.432;28.050;2024-02-21T00:04:11;102067.67;;;9.99;38.81
52291;BME280;39663;45.432;28.050;2024-02-21T00:04:43;102067.97;;;9.92;39.53
52291;BME280;39663;45.432;28.050;2024-02-21T00:05:15;102069.50;;;9.32;39.79
52291;BME280;39663;45.432;28.050;2024-02-21T00:05:47;102067.23;;;8.89;40.33
52291;BME280;39663;45.432;28.050;2024-02-21T00:06:19;102067.40;;;9.51;39.50
52291;BME280;39663;45.432;28.050;2024-02-21T00:06:51;102068.13;;;8.92;39.78
52291;BME280;39663;45.432;28.050;2024-02-21T00:07:22;102072.86;;;8.47;40.53
52291;BME280;39663;45.432;28.050;2024-02-21T00:07:54;102071.67;;;7.96;41.46
52291;BME280;39663;45.432;28.050;2024-02-21T00:08:25;102072.36;;;7.79;41.88
52291;BME280;39663;45.432;28.050;2024-02-21T00:08:57;102072.12;;;8.06;41.89
52291;BME280;39663;45.432;28.050;2024-02-21T00:09:28;102073.26;;;8.35;41.62
52291;BME280;39663;45.432;28.050;2024-02-21T00:10:00;102069.04;;;8.95;40.85
52291;BME280;39663;45.432;28.050;2024-02-21T00:10:31;102068.35;;;9.00;40.48
52291;BME280;39663;45.432;28.050;2024-02-21T00:11:03;102068.11;;;9.18;40.62
52291;BME280;39663;45.432;28.050;2024-02-21T00:11:35;102068.92;;;9.34;41.52
52291;BME280;39663;45.432;28.050;2024-02-21T00:12:07;102068.46;;;9.38;40.98
52291;BME280;39663;45.432;28.050;2024-02-21T00:12:38;102068.96;;;9.59;39.96
52291;BME280;39663;45.432;28.050;2024-02-21T00:13:10;102070.98;;;9.16;40.39
52291;BME280;39663;45.432;28.050;2024-02-21T00:13:42;102076.41;;;8.56;40.90
52291;BME280;39663;45.432;28.050;2024-02-21T00:14:13;102072.25;;;8.98;40.96
52291;BME280;39663;45.432;28.050;2024-02-21T00:14:45;102074.17;;;9.37;41.96
52291;BME280;39663;45.432;28.050;2024-02-21T00:15:16;102074.41;;;9.13;40.31
52291;BME280;39663;45.432;28.050;2024-02-21T00:15:48;102074.67;;;9.33;40.33
52291;BME280;39663;45.432;28.050;2024-02-21T00:16:19;102073.29;;;9.51;41.77
52291;BME280;39663;45.432;28.050;2024-02-21T00:16:51;102075.02;;;9.77;40.20
52291;BME280;39663;45.432;28.050;2024-02-21T00:17:22;102074.87;;;9.88;39.79
52291;BME280;39663;45.432;28.050;2024-02-21T00:17:54;102073.51;;;9.51;40.02
52291;BME280;39663;45.432;28.050;2024-02-21T00:18:25;102073.90;;;9.29;40.17
52291;BME280;39663;45.432;28.050;2024-02-21T00:18:57;102072.20;;;9.75;40.69
52291;BME280;39663;45.432;28.050;2024-02-21T00:19:28;102071.60;;;9.91;39.89
52291;BME280;39663;45.432;28.050;2024-02-21T00:20:00;102069.10;;;9.97;40.43
52291;BME280;39663;45.432;28.050;2024-02-21T00:20:31;102070.30;;;10.13;40.81
52291;BME280;39663;45.432;28.050;2024-02-21T00:21:03;102070.28;;;10.05;40.68
52291;BME280;39663;45.432;28.050;2024-02-21T00:21:34;102068.25;;;10.12;39.04
52291;BME280;39663;45.432;28.050;2024-02-21T00:22:06;102069.75;;;9.73;39.47
52291;BME280;39663;45.432;28.050;2024-02-21T00:22:38;102069.83;;;9.23;40.16
52291;BME280;39663;45.432;28.050;2024-02-21T00:23:09;102069.48;;;9.50;40.05
52291;BME280;39663;45.432;28.050;2024-02-21T00:23:41;102067.74;;;9.59;39.96
52291;BME280;39663;45.432;28.050;2024-02-21T00:24:12;102067.42;;;9.73;40.21
52291;BME280;39663;45.432;28.050;2024-02-21T00:24:44;102065.40;;;9.80;39.54
52291;BME280;39663;45.432;28.050;2024-02-21T00:25:16;102064.84;;;10.00;39.70
52291;BME280;39663;45.432;28.050;2024-02-21T00:25:47;102064.86;;;9.77;39.45
52291;BME280;39663;45.432;28.050;2024-02-21T00:26:19;102064.86;;;9.82;39.59
52291;BME280;39663;45.432;28.050;2024-02-21T00:26:50;102066.03;;;9.62;40.10
52291;BME280;39663;45.432;28.050;2024-02-21T00:27:22;102065.08;;;9.82;39.98
52291;BME280;39663;45.432;28.050;2024-02-21T00:27:53;102063.45;;;9.66;39.90
52291;BME280;39663;45.432;28.050;2024-02-21T00:28:25;102062.51;;;9.16;40.32
52291;BME280;39663;45.432;28.050;2024-02-21T00:28:56;102062.30;;;8.81;40.84
52291;BME280;39663;45.432;28.050;2024-02-21T00:29:28;102060.91;;;9.17;40.63
52291;BME280;39663;45.432;28.050;2024-02-21T00:30:00;102061.14;;;9.16;41.02
52291;BME280;39663;45.432;28.050;2024-02-21T00:30:32;102061.07;;;9.34;40.10
52291;BME280;39663;45.432;28.050;2024-02-21T00:31:03;102060.61;;;9.22;40.37
52291;BME280;39663;45.432;28.050;2024-02-21T00:31:35;102059.37;;;9.24;41.68
52291;BME280;39663;45.432;28.050;2024-02-21T00:32:06;102057.24;;;9.23;40.24
52291;BME280;39663;45.432;28.050;2024-02-21T00:32:38;102058.33;;;9.24;40.67
52291;BME280;39663;45.432;28.050;2024-02-21T00:33:09;102058.07;;;9.40;40.95
52291;BME280;39663;45.432;28.050;2024-02-21T00:33:41;102055.16;;;9.38;40.37
52291;BME280;39663;45.432;28.050;2024-02-21T00:34:12;102054.99;;;9.22;40.99
52291;BME280;39663;45.432;28.050;2024-02-21T00:34:44;102056.03;;;9.41;40.91
52291;BME280;39663;45.432;28.050;2024-02-21T00:35:16;102055.53;;;9.68;40.70
52291;BME280;39663;45.432;28.050;2024-02-21T00:35:47;102054.40;;;9.83;40.04
52291;BME280;39663;45.432;28.050;2024-02-21T00:36:19;102052.52;;;9.91;41.52
52291;BME280;39663;45.432;28.050;2024-02-21T00:36:50;102053.85;;;10.08;41.79
52291;BME280;39663;45.432;28.050;2024-02-21T00:37:22;102053.81;;;10.11;41.51
52291;BME280;39663;45.432;28.050;2024-02-21T00:37:53;102052.48;;;10.26;39.57
52291;BME280;39663;45.432;28.050;2024-02-21T00:38:25;102054.21;;;10.25;39.13
52291;BME280;39663;45.432;28.050;2024-02-21T00:38:57;102053.49;;;10.37;39.28
52291;BME280;39663;45.432;28.050;2024-02-21T00:39:28;102053.31;;;10.30;39.75
52291;BME280;39663;45.432;28.050;2024-02-21T00:40:00;102055.90;;;10.29;39.61
52291;BME280;39663;45.432;28.050;2024-02-21T00:40:31;102055.23;;;10.36;39.84
52291;BME280;39663;45.432;28.050;2024-02-21T00:41:03;102057.22;;;10.25;40.25
52291;BME280;39663;45.432;28.050;2024-02-21T00:41:35;102054.94;;;10.58;39.66
52291;BME280;39663;45.432;28.050;2024-02-21T00:42:06;102054.75;;;10.20;40.06
52291;BME280;39663;45.432;28.050;2024-02-21T00:42:38;102054.12;;;10.26;40.05
52291;BME280;39663;45.432;28.050;2024-02-21T00:43:09;102051.62;;;10.38;39.23
52291;BME280;39663;45.432;28.050;2024-02-21T00:43:41;102050.38;;;10.50;40.23
52291;BME280;39663;45.432;28.050;2024-02-21T00:44:13;102050.73;;;10.59;38.81
52291;BME280;39663;45.432;28.050;2024-02-21T00:44:44;102052.76;;;10.18;39.06
52291;BME280;39663;45.432;28.050;2024-02-21T00:45:16;102052.51;;;10.20;39.53
52291;BME280;39663;45.432;28.050;2024-02-21T00:45:47;102053.20;;;10.18;39.20
52291;BME280;39663;45.432;28.050;2024-02-21T00:46:19;102056.23;;;9.56;40.10
52291;BME280;39663;45.432;28.050;2024-02-21T00:46:50;102055.74;;;8.78;40.86
52291;BME280;39663;45.432;28.050;2024-02-21T00:47:22;102056.01;;;8.90;41.29
52291;BME280;39663;45.432;28.050;2024-02-21T00:47:53;102057.02;;;8.78;41.24
52291;BME280;39663;45.432;28.050;2024-02-21T00:48:25;102060.79;;;8.32;41.73
52291;BME280;39663;45.432;28.050;2024-02-21T00:48:56;102061.70;;;8.03;42.05
52291;BME280;39663;45.432;28.050;2024-02-21T00:49:28;102060.78;;;7.77;42.79
52291;BME280;39663;45.432;28.050;2024-02-21T00:50:00;102060.27;;;8.02;42.50
52291;BME280;39663;45.432;28.050;2024-02-21T00:50:31;102058.69;;;7.92;42.71
52291;BME280;39663;45.432;28.050;2024-02-21T00:51:03;102059.93;;;8.12;42.54
52291;BME280;39663;45.432;28.050;2024-02-21T00:51:35;102057.54;;;7.87;43.08
52291;BME280;39663;45.432;28.050;2024-02-21T00:52:07;102057.43;;;7.79;42.94
52291;BME280;39663;45.432;28.050;2024-02-21T00:52:38;102056.83;;;7.93;43.07
52291;BME280;39663;45.432;28.050;2024-02-21T00:53:10;102057.89;;;7.80;43.08
52291;BME280;39663;45.432;28.050;2024-02-21T00:53:41;102059.89;;;7.04;44.28
52291;BME280;39663;45.432;28.050;2024-02-21T00:54:13;102059.45;;;6.72;45.08
52291;BME280;39663;45.432;28.050;2024-02-21T00:54:45;102058.13;;;7.00;45.00
52291;BME280;39663;45.432;28.050;2024-02-21T00:55:16;102054.16;;;7.84;43.80
52291;BME280;39663;45.432;28.050;2024-02-21T00:55:47;102055.46;;;6.96;44.70
52291;BME280;39663;45.432;28.050;2024-02-21T00:56:19;102052.79;;;7.16;44.57
52291;BME280;39663;45.432;28.050;2024-02-21T00:56:50;102051.80;;;7.67;44.40
52291;BME280;39663;45.432;28.050;2024-02-21T00:57:22;102049.68;;;7.81;44.17
52291;BME280;39663;45.432;28.050;2024-02-21T00:57:53;102049.30;;;7.92;44.31
52291;BME280;39663;45.432;28.050;2024-02-21T00:58:25;102050.54;;;7.32;44.39
52291;BME280;39663;45.432;28.050;2024-02-21T00:58:57;102050.05;;;7.61;44.51
52291;BME280;39663;45.432;28.050;2024-02-21T00:59:28;102049.76;;;7.69;44.52
52291;BME280;39663;45.432;28.050;2024-02-21T01:00:00;102052.37;;;7.25;45.15
52291;BME280;39663;45.432;28.050;2024-02-21T01:00:31;102052.91;;;6.97;45.46
52291;BME280;39663;45.432;28.050;2024-02-21T01:01:03;102056.26;;;6.72;45.40
52291;BME280;39663;45.432;28.050;2024-02-21T01:01:35;102055.22;;;7.16;45.50
52291;BME280;39663;45.432;28.050;2024-02-21T01:02:06;102053.82;;;6.89;45.71
52291;BME280;39663;45.432;28.050;2024-02-21T01:02:38;102055.14;;;6.82;46.19
52291;BME280;39663;45.432;28.050;2024-02-21T01:03:10;102054.44;;;6.42;46.12
52291;BME280;39663;45.432;28.050;2024-02-21T01:03:41;102054.88;;;6.64;46.32
52291;BME280;39663;45.432;28.050;2024-02-21T01:04:13;102054.68;;;6.29;46.83
52291;BME280;39663;45.432;28.050;2024-02-21T01:04:44;102052.35;;;6.42;46.89
52291;BME280;39663;45.432;28.050;2024-02-21T01:05:16;102055.61;;;5.86;47.17
52291;BME280;39663;45.432;28.050;2024-02-21T01:05:47;102054.60;;;6.87;46.42
52291;BME280;39663;45.432;28.050;2024-02-21T01:06:19;102054.07;;;7.29;45.49
52291;BME280;39663;45.432;28.050;2024-02-21T01:06:50;102052.75;;;7.12;45.86
52291;BME280;39663;45.432;28.050;2024-02-21T01:07:22;102053.32;;;6.61;46.52
52291;BME280;39663;45.432;28.050;2024-02-21T01:07:53;102051.77;;;5.95;47.30
52291;BME280;39663;45.432;28.050;2024-02-21T01:08:25;102052.08;;;6.08;47.49
52291;BME280;39663;45.432;28.050;2024-02-21T01:08:56;102050.96;;;6.10;47.45
52291;BME280;39663;45.432;28.050;2024-02-21T01:09:28;102052.03;;;6.71;46.75
52291;BME280;39663;45.432;28.050;2024-02-21T01:10:00;102051.72;;;6.30;47.29
52291;BME280;39663;45.432;28.050;2024-02-21T01:10:31;102050.82;;;6.25;47.35
52291;BME280;39663;45.432;28.050;2024-02-21T01:11:03;102050.96;;;6.38;47.67
52291;BME280;39663;45.432;28.050;2024-02-21T01:11:34;102049.71;;;6.33;47.24
52291;BME280;39663;45.432;28.050;2024-02-21T01:12:06;102048.58;;;6.28;47.42
52291;BME280;39663;45.432;28.050;2024-02-21T01:12:38;102049.37;;;6.00;47.83
52291;BME280;39663;45.432;28.050;2024-02-21T01:13:09;102049.27;;;5.91;48.08
52291;BME280;39663;45.432;28.050;2024-02-21T01:13:41;102048.45;;;5.84;48.20
52291;BME280;39663;45.432;28.050;2024-02-21T01:14:13;102048.32;;;6.56;47.58
52291;BME280;39663;45.432;28.050;2024-02-21T01:14:44;102047.41;;;6.81;46.94
52291;BME280;39663;45.432;28.050;2024-02-21T01:15:16;102047.33;;;7.05;46.08
52291;BME280;39663;45.432;28.050;2024-02-21T01:15:48;102044.78;;;7.10;46.16
52291;BME280;39663;45.432;28.050;2024-02-21T01:16:19;102047.12;;;6.37;47.03
52291;BME280;39663;45.432;28.050;2024-02-21T01:16:50;102044.58;;;6.07;47.69
52291;BME280;39663;45.432;28.050;2024-02-21T01:17:22;102044.74;;;5.89;48.03
52291;BME280;39663;45.432;28.050;2024-02-21T01:17:53;102044.93;;;5.80;48.33
52291;BME280;39663;45.432;28.050;2024-02-21T01:18:25;102045.48;;;5.85;48.69
52291;BME280;39663;45.432;28.050;2024-02-21T01:18:56;102044.08;;;5.69;48.56
52291;BME280;39663;45.432;28.050;2024-02-21T01:19:28;102041.82;;;5.92;48.50
52291;BME280;39663;45.432;28.050;2024-02-21T01:20:00;102042.76;;;6.03;48.05
52291;BME280;39663;45.432;28.050;2024-02-21T01:20:31;102042.02;;;5.91;48.30
52291;BME280;39663;45.432;28.050;2024-02-21T01:21:04;102038.93;;;6.19;47.65
52291;BME280;39663;45.432;28.050;2024-02-21T01:21:35;102041.04;;;6.54;47.43
52291;BME280;39663;45.432;28.050;2024-02-21T01:22:07;102040.39;;;6.58;47.32
52291;BME280;39663;45.432;28.050;2024-02-21T01:22:38;102038.89;;;6.77;46.91
52291;BME280;39663;45.432;28.050;2024-02-21T01:23:10;102040.15;;;6.37;47.45
52291;BME280;39663;45.432;28.050;2024-02-21T01:23:41;102039.47;;;6.42;47.52
52291;BME280;39663;45.432;28.050;2024-02-21T01:24:13;102040.94;;;6.14;47.93
52291;BME280;39663;45.432;28.050;2024-02-21T01:24:44;102041.60;;;5.94;48.19
52291;BME280;39663;45.432;28.050;2024-02-21T01:25:16;102042.38;;;5.69;48.46
52291;BME280;39663;45.432;28.050;2024-02-21T01:25:47;102041.94;;;5.67;48.78
52291;BME280;39663;45.432;28.050;2024-02-21T01:26:19;102042.44;;;5.78;48.77
52291;BME280;39663;45.432;28.050;2024-02-21T01:26:51;102040.40;;;5.88;48.58
52291;BME280;39663;45.432;28.050;2024-02-21T01:27:22;102041.33;;;5.90;48.56
52291;BME280;39663;45.432;28.050;2024-02-21T01:27:54;102040.86;;;5.69;48.92
52291;BME280;39663;45.432;28.050;2024-02-21T01:28:25;102041.26;;;5.78;49.13
52291;BME280;39663;45.432;28.050;2024-02-21T01:28:57;102041.77;;;6.28;48.63
52291;BME280;39663;45.432;28.050;2024-02-21T01:29:28;102040.53;;;6.64;47.66
52291;BME280;39663;45.432;28.050;2024-02-21T01:29:59;102038.94;;;7.09;46.94
52291;BME280;39663;45.432;28.050;2024-02-21T01:30:31;102038.02;;;7.39;46.75
52291;BME280;39663;45.432;28.050;2024-02-21T01:31:03;102038.03;;;6.79;47.05
52291;BME280;39663;45.432;28.050;2024-02-21T01:31:34;102039.64;;;7.06;46.79
52291;BME280;39663;45.432;28.050;2024-02-21T01:32:06;102038.09;;;6.05;48.09
52291;BME280;39663;45.432;28.050;2024-02-21T01:32:38;102038.20;;;6.22;48.39
52291;BME280;39663;45.432;28.050;2024-02-21T01:33:10;102039.60;;;6.27;48.35
52291;BME280;39663;45.432;28.050;2024-02-21T01:33:42;102039.36;;;6.24;48.45
52291;BME280;39663;45.432;28.050;2024-02-21T01:34:13;102037.65;;;6.07;48.72
52291;BME280;39663;45.432;28.050;2024-02-21T01:34:45;102035.26;;;5.77;49.23
52291;BME280;39663;45.432;28.050;2024-02-21T01:35:16;102036.97;;;5.91;49.14
52291;BME280;39663;45.432;28.050;2024-02-21T01:35:47;102036.41;;;5.83;49.40
52291;BME280;39663;45.432;28.050;2024-02-21T01:36:19;102037.00;;;5.67;49.32
52291;BME280;39663;45.432;28.050;2024-02-21T01:36:50;102033.93;;;5.88;49.41
52291;BME280;39663;45.432;28.050;2024-02-21T01:37:22;102035.48;;;5.83;49.58
52291;BME280;39663;45.432;28.050;2024-02-21T01:37:54;102035.12;;;6.19;49.40
52291;BME280;39663;45.432;28.050;2024-02-21T01:38:25;102034.29;;;6.24;48.98
52291;BME280;39663;45.432;28.050;2024-02-21T01:38:57;102034.73;;;6.12;49.31
52291;BME280;39663;45.432;28.050;2024-02-21T01:39:29;102033.98;;;6.34;49.29
52291;BME280;39663;45.432;28.050;2024-02-21T01:40:00;102034.11;;;5.96;49.64
52291;BME280;39663;45.432;28.050;2024-02-21T01:40:32;102034.59;;;5.83;49.92
52291;BME280;39663;45.432;28.050;2024-02-21T01:41:03;102032.76;;;5.73;50.19
52291;BME280;39663;45.432;28.050;2024-02-21T01:41:35;102033.92;;;5.87;49.99
52291;BME280;39663;45.432;28.050;2024-02-21T01:42:06;102032.31;;;6.12;49.58
52291;BME280;39663;45.432;28.050;2024-02-21T01:42:39;102033.28;;;6.12;49.51
52291;BME280;39663;45.432;28.050;2024-02-21T01:43:16;102033.43;;;6.03;49.94
52291;BME280;39663;45.432;28.050;2024-02-21T01:43:49;102031.27;;;5.82;50.03
52291;BME280;39663;45.432;28.050;2024-02-21T01:44:20;102032.80;;;5.91;50.17
52291;BME280;39663;45.432;28.050;2024-02-21T01:44:52;102032.23;;;5.84;50.06
52291;BME280;39663;45.432;28.050;2024-02-21T01:45:24;102033.09;;;5.71;50.29
52291;BME280;39663;45.432;28.050;2024-02-21T01:45:56;102030.73;;;5.79;50.30
52291;BME280;39663;45.432;28.050;2024-02-21T01:46:28;102030.06;;;5.77;50.22
52291;BME280;39663;45.432;28.050;2024-02-21T01:47:00;102030.65;;;5.67;50.41
52291;BME280;39663;45.432;28.050;2024-02-21T01:47:32;102029.52;;;5.80;50.19
52291;BME280;39663;45.432;28.050;2024-02-21T01:48:04;102030.82;;;5.65;50.33
52291;BME280;39663;45.432;28.050;2024-02-21T01:48:36;102027.20;;;6.08;49.75
52291;BME280;39663;45.432;28.050;2024-02-21T01:49:07;102026.23;;;6.07;49.94
52291;BME280;39663;45.432;28.050;2024-02-21T01:49:40;102024.20;;;5.80;50.14
52291;BME280;39663;45.432;28.050;2024-02-21T01:50:12;102024.08;;;5.57;50.56
52291;BME280;39663;45.432;28.050;2024-02-21T01:50:45;102022.74;;;5.80;50.36
52291;BME280;39663;45.432;28.050;2024-02-21T01:51:17;102019.47;;;5.98;49.89
52291;BME280;39663;45.432;28.050;2024-02-21T01:51:48;102021.42;;;5.86;50.03
52291;BME280;39663;45.432;28.050;2024-02-21T01:52:20;102019.24;;;6.52;50.24
52291;BME280;39663;45.432;28.050;2024-02-21T01:52:52;102017.30;;;6.65;48.83
52291;BME280;39663;45.432;28.050;2024-02-21T01:53:29;102018.26;;;7.36;48.36
52291;BME280;39663;45.432;28.050;2024-02-21T01:54:01;102015.99;;;7.58;47.14
52291;BME280;39663;45.432;28.050;2024-02-21T01:54:33;102015.41;;;7.55;46.68
52291;BME280;39663;45.432;28.050;2024-02-21T01:55:05;102014.04;;;7.87;46.82
52291;BME280;39663;45.432;28.050;2024-02-21T01:55:37;102012.10;;;7.70;46.76
52291;BME280;39663;45.432;28.050;2024-02-21T01:56:09;102012.74;;;7.48;46.91
52291;BME280;39663;45.432;28.050;2024-02-21T01:56:41;102011.76;;;7.68;47.87
52291;BME280;39663;45.432;28.050;2024-02-21T01:57:12;102009.10;;;8.16;47.53
52291;BME280;39663;45.432;28.050;2024-02-21T01:57:44;102006.26;;;8.57;47.06
52291;BME280;39663;45.432;28.050;2024-02-21T01:58:16;102004.26;;;8.79;44.73
52291;BME280;39663;45.432;28.050;2024-02-21T01:58:49;102003.44;;;8.58;44.31
52291;BME280;39663;45.432;28.050;2024-02-21T02:01:47;101999.57;;;7.84;44.95
52291;BME280;39663;45.432;28.050;2024-02-21T02:02:19;102002.90;;;7.92;45.12
52291;BME280;39663;45.432;28.050;2024-02-21T02:02:51;102002.82;;;8.05;46.70
52291;BME280;39663;45.432;28.050;2024-02-21T02:03:22;101995.41;;;8.31;44.91
52291;BME280;39663;45.432;28.050;2024-02-21T02:03:54;102001.73;;;8.02;45.00
52291;BME280;39663;45.432;28.050;2024-02-21T02:04:26;101998.95;;;8.13;44.99
52291;BME280;39663;45.432;28.050;2024-02-21T02:04:57;101996.41;;;8.16;45.27
52291;BME280;39663;45.432;28.050;2024-02-21T02:05:29;101997.39;;;7.54;45.57
52291;BME280;39663;45.432;28.050;2024-02-21T02:06:01;102000.85;;;6.98;46.62
52291;BME280;39663;45.432;28.050;2024-02-21T02:06:33;101998.64;;;8.06;46.40
52291;BME280;39663;45.432;28.050;2024-02-21T02:07:05;101996.38;;;8.69;45.33
52291;BME280;39663;45.432;28.050;2024-02-21T02:07:38;101999.85;;;8.02;45.07
52291;BME280;39663;45.432;28.050;2024-02-21T02:08:09;102000.16;;;7.83;45.81
52291;BME280;39663;45.432;28.050;2024-02-21T02:08:41;102004.06;;;7.23;46.78
52291;BME280;39663;45.432;28.050;2024-02-21T02:09:13;102003.20;;;6.48;47.41
52291;BME280;39663;45.432;28.050;2024-02-21T02:09:44;102002.40;;;6.48;47.89
52291;BME280;39663;45.432;28.050;2024-02-21T02:10:16;102002.60;;;6.92;47.69
52291;BME280;39663;45.432;28.050;2024-02-21T02:10:47;102004.08;;;6.47;47.95
52291;BME280;39663;45.432;28.050;2024-02-21T02:11:18;102003.65;;;6.83;47.99
52291;BME280;39663;45.432;28.050;2024-02-21T02:11:50;102003.52;;;6.85;47.19
52291;BME280;39663;45.432;28.050;2024-02-21T02:12:22;102004.27;;;6.13;48.18
52291;BME280;39663;45.432;28.050;2024-02-21T02:12:53;102003.13;;;5.85;48.90
52291;BME280;39663;45.432;28.050;2024-02-21T02:13:25;102002.21;;;5.72;49.17
52291;BME280;39663;45.432;28.050;2024-02-21T02:13:56;102002.12;;;6.05;49.37
52291;BME280;39663;45.432;28.050;2024-02-21T02:14:27;102002.89;;;5.88;49.40
52291;BME280;39663;45.432;28.050;2024-02-21T02:14:59;102002.16;;;5.97;49.56
52291;BME280;39663;45.432;28.050;2024-02-21T02:15:38;102003.16;;;5.67;49.82
52291;BME280;39663;45.432;28.050;2024-02-21T02:16:09;102005.77;;;5.64;50.33
52291;BME280;39663;45.432;28.050;2024-02-21T02:16:41;102006.57;;;5.58;50.50
52291;BME280;39663;45.432;28.050;2024-02-21T02:17:13;102003.87;;;5.68;50.45
52291;BME280;39663;45.432;28.050;2024-02-21T02:17:44;102000.28;;;5.87;50.21
52291;BME280;39663;45.432;28.050;2024-02-21T02:18:17;102000.43;;;6.04;49.95
52291;BME280;39663;45.432;28.050;2024-02-21T02:18:48;102001.75;;;5.73;50.45
52291;BME280;39663;45.432;28.050;2024-02-21T02:19:20;102002.31;;;5.88;50.21
52291;BME280;39663;45.432;28.050;2024-02-21T02:19:51;102002.80;;;6.50;50.05
52291;BME280;39663;45.432;28.050;2024-02-21T02:20:23;102003.16;;;5.90;50.17
52291;BME280;39663;45.432;28.050;2024-02-21T02:20:54;102003.82;;;6.05;50.29
52291;BME280;39663;45.432;28.050;2024-02-21T02:21:30;102004.05;;;6.99;49.23
52291;BME280;39663;45.432;28.050;2024-02-21T02:22:11;102005.89;;;6.37;49.21
52291;BME280;39663;45.432;28.050;2024-02-21T02:22:47;102004.24;;;6.33;49.40
52291;BME280;39663;45.432;28.050;2024-02-21T02:23:24;102005.62;;;5.99;50.14
52291;BME280;39663;45.432;28.050;2024-02-21T02:23:56;102009.21;;;5.80;50.38
52291;BME280;39663;45.432;28.050;2024-02-21T02:24:27;102008.78;;;5.73;51.02
52291;BME280;39663;45.432;28.050;2024-02-21T02:24:59;102010.30;;;5.63;50.96
52291;BME280;39663;45.432;28.050;2024-02-21T02:25:30;102010.93;;;5.50;51.51
52291;BME280;39663;45.432;28.050;2024-02-21T02:26:02;102010.80;;;5.53;51.55
52291;BME280;39663;45.432;28.050;2024-02-21T02:26:33;102009.94;;;5.72;51.19
52291;BME280;39663;45.432;28.050;2024-02-21T02:27:05;102011.85;;;5.53;51.54
52291;BME280;39663;45.432;28.050;2024-02-21T02:27:42;102011.82;;;5.49;51.77
52291;BME280;39663;45.432;28.050;2024-02-21T02:28:13;102010.03;;;5.42;51.98
52291;BME280;39663;45.432;28.050;2024-02-21T02:28:46;102010.93;;;5.70;52.09
52291;BME280;39663;45.432;28.050;2024-02-21T02:29:17;102011.92;;;5.29;52.11
52291;BME280;39663;45.432;28.050;2024-02-21T02:29:48;102011.33;;;5.33;52.10
52291;BME280;39663;45.432;28.050;2024-02-21T02:30:20;102010.92;;;5.36;52.19
52291;BME280;39663;45.432;28.050;2024-02-21T02:30:51;102011.74;;;5.57;52.98
52291;BME280;39663;45.432;28.050;2024-02-21T02:31:23;102011.84;;;5.62;52.18
52291;BME280;39663;45.432;28.050;2024-02-21T02:31:55;102012.99;;;5.22;52.24
52291;BME280;39663;45.432;28.050;2024-02-21T02:32:26;102012.03;;;5.42;52.47
52291;BME280;39663;45.432;28.050;2024-02-21T02:32:58;102012.44;;;5.28;52.52
52291;BME280;39663;45.432;28.050;2024-02-21T02:33:29;102010.74;;;5.30;52.38
52291;BME280;39663;45.432;28.050;2024-02-21T02:34:01;102012.46;;;5.11;52.45
52291;BME280;39663;45.432;28.050;2024-02-21T02:34:32;102013.61;;;5.29;52.17
52291;BME280;39663;45.432;28.050;2024-02-21T02:35:04;102012.26;;;5.48;51.82
52291;BME280;39663;45.432;28.050;2024-02-21T02:35:36;102011.91;;;6.33;50.78
52291;BME280;39663;45.432;28.050;2024-02-21T02:36:07;102012.44;;;6.90;49.64
52291;BME280;39663;45.432;28.050;2024-02-21T02:36:39;102009.35;;;6.75;49.63
52291;BME280;39663;45.432;28.050;2024-02-21T02:37:10;102013.45;;;7.13;50.18
52291;BME280;39663;45.432;28.050;2024-02-21T02:37:48;102012.45;;;7.90;48.67
52291;BME280;39663;45.432;28.050;2024-02-21T02:38:20;102011.90;;;7.92;48.15
52291;BME280;39663;45.432;28.050;2024-02-21T02:38:52;102011.11;;;8.22;48.51
52291;BME280;39663;45.432;28.050;2024-02-21T02:39:23;102012.13;;;8.58;47.57
52291;BME280;39663;45.432;28.050;2024-02-21T02:39:55;102011.37;;;8.57;46.13
52291;BME280;39663;45.432;28.050;2024-02-21T02:40:26;102009.64;;;8.03;46.64
52291;BME280;39663;45.432;28.050;2024-02-21T02:40:58;102011.10;;;7.75;46.92
52291;BME280;39663;45.432;28.050;2024-02-21T02:41:29;102013.35;;;7.52;47.42
52291;BME280;39663;45.432;28.050;2024-02-21T02:42:02;102010.23;;;7.68;47.17
52291;BME280;39663;45.432;28.050;2024-02-21T02:42:33;102007.50;;;8.35;46.65
52291;BME280;39663;45.432;28.050;2024-02-21T02:43:05;102006.92;;;8.11;46.37
52291;BME280;39663;45.432;28.050;2024-02-21T02:43:36;102008.07;;;7.81;46.92
52291;BME280;39663;45.432;28.050;2024-02-21T02:44:07;102007.55;;;7.30;47.62
52291;BME280;39663;45.432;28.050;2024-02-21T02:44:39;102009.25;;;6.81;48.58
52291;BME280;39663;45.432;28.050;2024-02-21T02:45:10;102009.31;;;6.35;48.74
52291;BME280;39663;45.432;28.050;2024-02-21T02:45:42;102006.70;;;6.15;49.29
52291;BME280;39663;45.432;28.050;2024-02-21T02:46:13;102007.42;;;5.84;50.16
52291;BME280;39663;45.432;28.050;2024-02-21T02:46:45;102009.41;;;5.70;50.70
52291;BME280;39663;45.432;28.050;2024-02-21T02:47:17;102008.27;;;5.76;50.71
52291;BME280;39663;45.432;28.050;2024-02-21T02:47:48;102008.92;;;6.62;49.54
52291;BME280;39663;45.432;28.050;2024-02-21T02:48:20;102007.26;;;5.94;50.29
52291;BME280;39663;45.432;28.050;2024-02-21T02:48:51;102009.88;;;6.03;50.28